Ezra, Illinois
Current Conditions -  °F | °C
As of 6:52 AM on Thursday 27 Nov 2014 (Local Time) from KMWA Reporting Station
Overcast Overcast  
Wind Chill: 17°   Ceiling: 1800
Heat Index: 30°   Visibility: 10mi
Dew Point: 25°   Wind: 21mph
Humidity: 80%   Direction: 350°N
Pressure: 30.4"   Gusts: NA
Location:  37.9074°N, 88.9501°W
Report Text: KMWA 271252Z 35018KT 10SM OVC018 M01/M04 A3040 RMK BINOVC
Loading
Personal Weather Stations






























Interactive Weather Map New forecast layout! Learn more

10-Day Weather Forecast

Advertisements
Track Severe Weather on mobile